Saranac, Michigan
Current Conditions -  °F | °C
As of 11:15 PM on Friday 31 Oct 2014 (Local Time) from KY70 Reporting Station
Overcast Overcast  
Wind Chill: 23°   Ceiling: 3300
Heat Index: 34°   Visibility: 10mi
Dew Point: 23°   Wind: 18mph
Humidity: 65%   Direction: 10°N
Pressure: 30.25"   Gusts: 28mph
Location:  42.93°N, 85.21°W
Report Text: KY70 010315Z AUTO 01016G24KT 10SM OVC033 01/M05 A3025 RMK AO2
Loading
Personal Weather Stations






























Interactive Weather Map
Tropical Storm Tracking
New forecast layout! Learn more

10-Day Weather Forecast

Advertisements
Track Severe Weather on mobile